Round Knob, Illinois
Current Conditions -  °F | °C
As of 8:15 AM on Monday 20 Oct 2014 (Local Time) from KM30 Reporting Station
Light Rain Light Rain  
Wind Chill: 53°   Ceiling: 11000
Heat Index: 53°   Visibility: 10mi
Dew Point: 50°   Wind: 5mph
Humidity: 91%   Direction: 190°S
Pressure: 30.04"   Gusts: NA
Location:  37.2288°N, 88.7044°W
Report Text: KM30 201315Z AUTO 19004KT 10SM -RA OVC110 12/10 A3004 RMK AO2 T01150101
Loading
Personal Weather Stations






























Interactive Weather Map
Tropical Storm Tracking
New forecast layout! Learn more

10-Day Weather Forecast

Advertisements
Track Severe Weather on mobile